Ardmore, Tennessee
Current Conditions -  °F | °C
As of 10:15 AM on Thursday 30 Oct 2014 (Local Time) from KFYM Reporting Station
Clear Clear  
Wind Chill: 11°   Ceiling: Unl
Heat Index: 11°   Visibility: 10mi
Dew Point:   Wind: 15mph
Humidity: 62%   Direction: 10°N
Pressure: 30.15"   Gusts: 269mph
Location:  34.99°N, 86.85°W
Report Text: KFYM 301515Z AUTO 01013G234KT 10SM CLR 11/04 A3015 RMK
Loading
Personal Weather Stations






























Interactive Weather Map
Tropical Storm Tracking
New forecast layout! Learn more

10-Day Weather Forecast

Advertisements
Track Severe Weather on mobile